createdAt,value
2022-11-03T00:00:23.111Z,95965.59
2022-11-03T00:02:50.205Z,95962.81
2022-11-03T00:05:17.433Z,95955.09
2022-11-03T00:07:44.492Z,95962.81
2022-11-03T00:10:11.534Z,95962.81
2022-11-03T00:12:38.574Z,95957.13
2022-11-03T00:15:06.452Z,95955.13
2022-11-03T00:17:34.974Z,95953.50
2022-11-03T00:20:02.492Z,95959.59
2022-11-03T00:22:29.555Z,95956.53
2022-11-03T00:24:56.534Z,95960.41
2022-11-03T00:27:23.553Z,95958.97
2022-11-03T00:29:50.593Z,95949.28
2022-11-03T00:32:17.613Z,95945.22
2022-11-03T00:34:46.116Z,95949.06
2022-11-03T00:37:13.154Z,95943.81
2022-11-03T00:39:40.177Z,95950.69
2022-11-03T00:42:07.236Z,95944.22
2022-11-03T00:44:34.274Z,95948.06
2022-11-03T00:47:01.273Z,95951.09
2022-11-03T00:49:28.312Z,95945.03
2022-11-03T00:51:56.814Z,95938.13
2022-11-03T00:54:23.893Z,95935.09
2022-11-03T00:56:50.974Z,95939.38
2022-11-03T00:59:18.034Z,95942.19
2022-11-03T01:01:47.464Z,95935.31
2022-11-03T01:04:16.674Z,95929.84
2022-11-03T01:06:45.713Z,95930.47
2022-11-03T01:09:14.414Z,95933.91
2022-11-03T01:11:41.435Z,95926.22
2022-11-03T01:14:09.473Z,95925.41
2022-11-03T01:16:36.473Z,95930.66
2022-11-03T01:19:04.196Z,95928.03
2022-11-03T01:21:31.313Z,95924.59
2022-11-03T01:24:00.528Z,95921.31
2022-11-03T01:26:29.793Z,95905.31
2022-11-03T01:28:59.519Z,95903.09
2022-11-03T01:31:28.094Z,95898.91
2022-11-03T01:33:56.552Z,95897.38
2022-11-03T01:36:24.519Z,95892.88
2022-11-03T01:38:51.809Z,95891.41
2022-11-03T01:41:21.093Z,95891.34
2022-11-03T01:44:11.724Z,95890.31
2022-11-03T01:46:46.594Z,95885.50
2022-11-03T01:49:19.853Z,95877.66
2022-11-03T01:51:52.120Z,95882.44
2022-11-03T01:54:26.434Z,95876.63
2022-11-03T01:56:55.817Z,95877.59
2022-11-03T01:59:26.352Z,95868.06
2022-11-03T02:01:53.643Z,95866.97
2022-11-03T02:04:26.634Z,95873.91
2022-11-03T02:07:00.136Z,95876.97
2022-11-03T02:09:27.754Z,95862.59
2022-11-03T02:11:55.473Z,95865.78
2022-11-03T02:14:24.469Z,95855.22
2022-11-03T02:16:58.593Z,95844.63
2022-11-03T02:19:34.574Z,95850.91
2022-11-03T02:22:25.104Z,95845.28
2022-11-03T02:24:59.855Z,95833.91
2022-11-03T02:27:28.894Z,95836.28
2022-11-03T02:29:56.065Z,95824.63
2022-11-03T02:32:25.873Z,95818.75
2022-11-03T02:35:02.473Z,95810.59
2022-11-03T02:37:35.776Z,95806.22
2022-11-03T02:40:09.018Z,95809.34
2022-11-03T02:42:42.514Z,95811.00
2022-11-03T02:45:17.319Z,95805.41
2022-11-03T02:47:46.855Z,95802.81
2022-11-03T02:50:13.955Z,95802.16
2022-11-03T02:52:43.392Z,95795.84
2022-11-03T02:55:20.876Z,95796.03
2022-11-03T02:57:57.094Z,95792.03
2022-11-03T03:00:24.894Z,95782.00
2022-11-03T03:02:59.733Z,95784.88
2022-11-03T03:05:34.317Z,95776.97
2022-11-03T03:08:06.453Z,95774.59
2022-11-03T03:10:41.086Z,95770.72
2022-11-03T03:13:13.935Z,95771.63
2022-11-03T03:15:47.701Z,95771.63
2022-11-03T03:18:24.505Z,95775.66
2022-11-03T03:20:57.013Z,95766.06
2022-11-03T03:23:30.193Z,95769.44
2022-11-03T03:26:05.154Z,95765.19
2022-11-03T03:28:40.453Z,95758.41
2022-11-03T03:31:12.174Z,95747.09
2022-11-03T03:33:43.530Z,95761.59
2022-11-03T03:36:18.454Z,95755.44
2022-11-03T03:38:52.204Z,95740.47
2022-11-03T03:41:22.160Z,95744.47
2022-11-03T03:43:55.412Z,95739.88
2022-11-03T03:46:28.793Z,95741.34
2022-11-03T03:48:56.430Z,95730.41
2022-11-03T03:51:27.993Z,95721.34
2022-11-03T03:53:55.045Z,95715.53
2022-11-03T03:56:30.536Z,95720.25
2022-11-03T03:58:59.113Z,95721.19
2022-11-03T04:01:26.252Z,95721.81
2022-11-03T04:03:53.416Z,95723.13
2022-11-03T04:06:20.435Z,95722.22
2022-11-03T04:08:47.453Z,95727.41
2022-11-03T04:11:14.533Z,95723.03
2022-11-03T04:13:41.574Z,95725.09
2022-11-03T04:16:10.366Z,95713.50
2022-11-03T04:18:37.438Z,95714.63
2022-11-03T04:21:05.752Z,95717.84
2022-11-03T04:23:32.815Z,95712.94
2022-11-03T04:26:00.095Z,95718.22
2022-11-03T04:28:27.244Z,95721.50
2022-11-03T04:30:58.886Z,95716.19
2022-11-03T04:33:30.143Z,95724.78
2022-11-03T04:35:59.445Z,95722.22
2022-11-03T04:38:27.814Z,95724.47
2022-11-03T04:40:57.216Z,95719.66
2022-11-03T04:43:32.333Z,95706.47
2022-11-03T04:45:59.514Z,95714.25
2022-11-03T04:48:29.996Z,95707.94
2022-11-03T04:51:00.986Z,95708.59
2022-11-03T04:53:32.995Z,95709.53
2022-11-03T04:56:05.948Z,95705.06
2022-11-03T04:58:35.874Z,95707.72
2022-11-03T05:01:04.898Z,95695.06
2022-11-03T05:03:36.592Z,95695.34
2022-11-03T05:06:14.036Z,95680.53
2022-11-03T05:08:42.956Z,95675.97
2022-11-03T05:11:19.494Z,95664.84
2022-11-03T05:13:47.573Z,95660.69
2022-11-03T05:16:14.735Z,95660.81
2022-11-03T05:18:46.293Z,95657.31
2022-11-03T05:21:18.062Z,95645.31
2022-11-03T05:23:50.194Z,95638.69
2022-11-03T05:26:22.874Z,95641.19
2022-11-03T05:28:55.594Z,95632.94
2022-11-03T05:31:25.999Z,95632.25
2022-11-03T05:33:57.896Z,95627.88
2022-11-03T05:36:29.394Z,95620.16
2022-11-03T05:39:01.293Z,95621.78
2022-11-03T05:41:30.783Z,95619.72
2022-11-03T05:44:01.475Z,95621.13
2022-11-03T05:46:32.195Z,95616.03
2022-11-03T05:49:02.959Z,95625.66
2022-11-03T05:51:37.533Z,95615.25
2022-11-03T05:54:19.474Z,95606.97
2022-11-03T05:56:48.255Z,95607.09
2022-11-03T05:59:23.054Z,95615.25
2022-11-03T06:01:52.090Z,95611.56
2022-11-03T06:04:26.813Z,95613.41
2022-11-03T06:06:58.997Z,95610.75
2022-11-03T06:09:27.395Z,95604.31
2022-11-03T06:11:58.835Z,95603.44
2022-11-03T06:14:28.293Z,95597.72
2022-11-03T06:16:59.874Z,95599.09
2022-11-03T06:19:31.675Z,95604.00
2022-11-03T06:22:06.254Z,95601.38
2022-11-03T06:24:34.802Z,95593.69
2022-11-03T06:27:02.955Z,95583.94
2022-11-03T06:29:33.581Z,95589.22
2022-11-03T06:32:01.993Z,95590.81
2022-11-03T06:34:41.175Z,95591.78
2022-11-03T06:37:19.814Z,95597.63
2022-11-03T06:39:48.595Z,95594.59
2022-11-03T06:42:20.302Z,95600.06
2022-11-03T06:44:50.495Z,95596.91
2022-11-03T06:47:23.155Z,95600.94
2022-11-03T06:49:54.634Z,95606.78
2022-11-03T06:52:28.916Z,95601.41
2022-11-03T06:55:02.156Z,95591.25
2022-11-03T06:57:35.456Z,95587.69
2022-11-03T07:00:28.627Z,95586.97
2022-11-03T07:03:00.996Z,95594.91
2022-11-03T07:05:32.076Z,95584.25
2022-11-03T07:08:03.174Z,95586.44
2022-11-03T07:10:33.335Z,95591.97
2022-11-03T07:13:07.383Z,95593.66
2022-11-03T07:15:37.317Z,95587.81
2022-11-03T07:18:13.154Z,95595.59
2022-11-03T07:20:41.695Z,95591.16
2022-11-03T07:23:16.805Z,95590.31
2022-11-03T07:25:48.295Z,95595.00
2022-11-03T07:28:16.234Z,95598.09
2022-11-03T07:30:43.717Z,95599.06
2022-11-03T07:33:16.535Z,95601.66
2022-11-03T07:36:14.788Z,95601.13
2022-11-03T07:38:33.736Z,95586.63
2022-11-03T07:41:01.100Z,95583.09
2022-11-03T07:43:33.481Z,95585.97
2022-11-03T07:46:03.257Z,95587.13
2022-11-03T07:48:39.676Z,95588.72
2022-11-03T07:51:20.380Z,95591.78
2022-11-03T07:53:50.495Z,95592.03
2022-11-03T07:56:21.557Z,95591.13
2022-11-03T07:58:52.494Z,95584.00
2022-11-03T08:01:28.014Z,95589.47
2022-11-03T08:04:00.275Z,95580.31
2022-11-03T08:06:28.810Z,95586.91
2022-11-03T08:08:55.874Z,95583.94
2022-11-03T08:11:26.129Z,95595.66
2022-11-03T08:13:56.434Z,95589.50
2022-11-03T08:16:23.509Z,95589.63
2022-11-03T08:18:50.534Z,95580.22
2022-11-03T08:21:17.602Z,95586.19
2022-11-03T08:23:47.535Z,95586.69
2022-11-03T08:26:15.504Z,95590.81
2022-11-03T08:28:43.159Z,95591.72
2022-11-03T08:31:12.976Z,95598.00
2022-11-03T08:33:41.237Z,95584.25
2022-11-03T08:36:09.156Z,95580.16
2022-11-03T08:38:36.378Z,95574.28
2022-11-03T08:41:05.314Z,95567.28
2022-11-03T08:43:32.385Z,95549.44
2022-11-03T08:46:09.701Z,95538.38
2022-11-03T08:48:40.586Z,95546.06
2022-11-03T08:51:08.035Z,95552.50
2022-11-03T08:53:35.088Z,95559.63
2022-11-03T08:56:02.179Z,95566.84
2022-11-03T08:58:30.679Z,95559.72
2022-11-03T09:00:57.836Z,95557.13
2022-11-03T09:03:25.132Z,95559.53
2022-11-03T09:05:52.380Z,95558.03
2022-11-03T09:11:06.975Z,95541.28
2022-11-03T09:13:35.495Z,95532.66
2022-11-03T09:16:02.777Z,95524.47
2022-11-03T09:18:29.877Z,95516.41
2022-11-03T09:20:57.000Z,95503.34
2022-11-03T09:23:23.996Z,95504.69
2022-11-03T09:25:51.197Z,95507.47
2022-11-03T09:28:18.309Z,95501.38
2022-11-03T09:30:48.042Z,95503.94
2022-11-03T09:33:15.143Z,95503.16
2022-11-03T09:35:42.197Z,95495.75
2022-11-03T09:38:09.505Z,95485.22
2022-11-03T09:40:36.908Z,95477.88
2022-11-03T09:43:04.451Z,95460.31
2022-11-03T09:45:32.398Z,95460.25
2022-11-03T09:48:02.037Z,95453.38
2022-11-03T09:50:29.383Z,95447.91
2022-11-03T09:52:56.944Z,95452.78
2022-11-03T09:55:26.578Z,95452.50
2022-11-03T09:57:58.676Z,95449.50
2022-11-03T10:00:25.777Z,95441.69
2022-11-03T10:02:54.865Z,95451.59
2022-11-03T10:05:26.617Z,95448.09
2022-11-03T10:08:00.817Z,95432.81
2022-11-03T10:10:28.196Z,95430.66
2022-11-03T10:12:56.417Z,95430.91
2022-11-03T10:15:26.857Z,95417.56
2022-11-03T10:17:55.516Z,95419.03
2022-11-03T10:20:24.096Z,95408.31
2022-11-03T10:22:54.801Z,95404.47
2022-11-03T10:25:36.337Z,95389.25
2022-11-03T10:28:19.638Z,95383.66
2022-11-03T10:31:11.169Z,95365.44
2022-11-03T10:33:41.735Z,95356.34
2022-11-03T10:36:25.245Z,95360.91
2022-11-03T10:38:52.690Z,95341.63
2022-11-03T10:41:21.661Z,95344.00
2022-11-03T10:44:01.957Z,95336.03
2022-11-03T10:46:49.791Z,95325.72
2022-11-03T10:49:18.778Z,95320.72
2022-11-03T10:51:50.336Z,95305.34
2022-11-03T10:54:20.200Z,95306.22
2022-11-03T10:56:48.676Z,95315.44
2022-11-03T10:59:19.305Z,95317.53
2022-11-03T11:01:47.201Z,95313.59
2022-11-03T11:04:17.153Z,95323.38
2022-11-03T11:06:45.515Z,95325.00
2022-11-03T11:09:20.674Z,95328.69
2022-11-03T11:12:04.457Z,95315.44
2022-11-03T11:14:39.209Z,95307.88
2022-11-03T11:17:41.335Z,95296.97
2022-11-03T11:20:30.361Z,95290.13
2022-11-03T11:23:47.718Z,95279.38
2022-11-03T11:26:32.069Z,95268.19
2022-11-03T11:29:35.186Z,95242.84
2022-11-03T11:32:50.783Z,95244.84
2022-11-03T11:36:04.923Z,95229.22
2022-11-03T11:39:08.403Z,95234.88
2022-11-03T11:42:07.956Z,95223.75
2022-11-03T11:45:02.777Z,95203.44
2022-11-03T11:47:47.592Z,95193.00
2022-11-03T11:50:32.644Z,95195.88
2022-11-03T11:53:13.924Z,95183.22
2022-11-03T11:55:55.150Z,95172.81
2022-11-03T11:58:30.665Z,95158.19
2022-11-03T12:01:00.819Z,95156.09
2022-11-03T12:03:36.770Z,95150.88
2022-11-03T12:06:04.321Z,95146.47
2022-11-03T12:08:32.718Z,95141.75
2022-11-03T12:11:02.854Z,95132.97
2022-11-03T12:13:43.782Z,95126.91
2022-11-03T12:16:26.163Z,95125.34
2022-11-03T12:18:54.464Z,95119.50
2022-11-03T12:21:45.664Z,95111.63
2022-11-03T12:24:37.513Z,95102.13
2022-11-03T12:27:19.224Z,95101.03
2022-11-03T12:29:47.783Z,95098.88
2022-11-03T12:32:32.286Z,95092.00
2022-11-03T12:35:00.554Z,95081.94
2022-11-03T12:37:27.728Z,95080.31
2022-11-03T12:39:54.763Z,95082.16
2022-11-03T12:42:21.887Z,95076.84
2022-11-03T12:44:50.883Z,95078.16
2022-11-03T12:47:17.975Z,95070.19
2022-11-03T12:49:45.164Z,95075.69
2022-11-03T12:52:12.250Z,95077.00
2022-11-03T12:54:39.352Z,95072.72
2022-11-03T12:57:06.485Z,95065.53
2022-11-03T12:59:33.663Z,95054.47
2022-11-03T13:02:02.300Z,95042.97
2022-11-03T13:04:29.507Z,95039.59
2022-11-03T13:06:56.596Z,95013.84
2022-11-03T13:09:23.963Z,95014.59
2022-11-03T13:11:51.004Z,94996.84
2022-11-03T13:14:18.105Z,95035.41
2022-11-03T13:16:45.283Z,95047.53
2022-11-03T13:19:13.923Z,95053.59
2022-11-03T13:21:41.004Z,95049.63
2022-11-03T13:24:08.205Z,95064.41
2022-11-03T13:26:35.447Z,95073.06
2022-11-03T13:29:02.523Z,95090.47
2022-11-03T13:31:29.595Z,95094.06
2022-11-03T13:33:56.662Z,95090.22
2022-11-03T13:36:25.375Z,95089.72
2022-11-03T13:38:52.580Z,95077.09
2022-11-03T13:41:19.653Z,95067.53
2022-11-03T13:43:46.719Z,95063.00
2022-11-03T13:46:13.817Z,95077.19
2022-11-03T13:51:29.368Z,95069.06
2022-11-03T13:59:31.011Z,95048.06
2022-11-03T14:04:45.265Z,95041.25
2022-11-03T14:07:13.877Z,95054.38
2022-11-03T14:09:41.058Z,95046.13
2022-11-03T14:12:08.281Z,95035.22
2022-11-03T14:14:35.439Z,95030.66
2022-11-03T14:17:02.519Z,95026.16
2022-11-03T14:19:37.962Z,95013.94
2022-11-03T14:22:08.762Z,95005.16
2022-11-03T14:24:37.217Z,94992.38
2022-11-03T14:27:04.439Z,94989.41
2022-11-03T14:29:31.597Z,94998.63
2022-11-03T14:31:58.717Z,94994.94
2022-11-03T14:34:25.978Z,94993.25
2022-11-03T14:36:53.164Z,94994.31
2022-11-03T14:39:20.258Z,94995.25
2022-11-03T14:41:48.778Z,94995.25
2022-11-03T14:44:15.817Z,94975.91
2022-11-03T14:46:42.817Z,94966.06
2022-11-03T14:49:09.840Z,94955.22
2022-11-03T14:51:36.877Z,94958.88
2022-11-03T14:54:04.038Z,94957.75
2022-11-03T14:56:31.160Z,94958.81
2022-11-03T14:58:59.659Z,94968.00
2022-11-03T15:01:26.828Z,94953.13
2022-11-03T15:03:54.099Z,94912.94
2022-11-03T15:06:21.117Z,94918.69
2022-11-03T15:08:51.958Z,94923.16
2022-11-03T15:11:22.617Z,94911.19
2022-11-03T15:13:52.238Z,94897.69
2022-11-03T15:16:21.369Z,94895.88
2022-11-03T15:18:48.477Z,94895.22
2022-11-03T15:21:16.124Z,94882.53
2022-11-03T15:26:30.319Z,94889.47
2022-11-03T15:28:58.079Z,94894.50
2022-11-03T15:31:26.537Z,94881.88
2022-11-03T15:33:53.777Z,94876.34
2022-11-03T15:36:20.930Z,94862.94
2022-11-03T15:38:48.077Z,94855.28
2022-11-03T15:41:15.586Z,94875.34
2022-11-03T15:43:44.017Z,94859.03
2022-11-03T15:46:11.502Z,94858.47
2022-11-03T15:48:40.098Z,94852.38
2022-11-03T15:51:07.428Z,94828.19
2022-11-03T15:53:34.637Z,94853.19
2022-11-03T15:56:02.421Z,94867.19
2022-11-03T15:58:29.518Z,94876.91
2022-11-03T16:00:56.639Z,94871.09
2022-11-03T16:03:23.848Z,94870.13
2022-11-03T16:05:52.397Z,94878.28
2022-11-03T16:08:19.459Z,94876.97
2022-11-03T16:10:53.140Z,94890.16
2022-11-03T16:13:21.865Z,94869.06
2022-11-03T16:15:48.929Z,94864.13
2022-11-03T16:18:16.044Z,94867.53
2022-11-03T16:20:43.119Z,94866.53
2022-11-03T16:23:11.818Z,94849.09
2022-11-03T16:25:38.898Z,94854.16
2022-11-03T16:28:06.213Z,94857.00
2022-11-03T16:30:33.638Z,94851.97
2022-11-03T16:33:00.859Z,94854.31
2022-11-03T16:35:27.959Z,94844.78
2022-11-03T16:37:55.027Z,94825.25
2022-11-03T16:40:23.646Z,94819.63
2022-11-03T16:42:50.819Z,94815.19
2022-11-03T16:45:20.804Z,94796.41
2022-11-03T16:47:49.690Z,94797.44
2022-11-03T16:50:17.765Z,94804.03
2022-11-03T16:52:45.582Z,94808.47
2022-11-03T16:55:12.983Z,94819.50
2022-11-03T16:57:41.678Z,94824.84
2022-11-03T17:00:13.081Z,94833.31
2022-11-03T17:02:40.882Z,94821.97
2022-11-03T17:05:09.681Z,94802.09
2022-11-03T17:07:37.640Z,94813.75
2022-11-03T17:10:06.338Z,94821.41
2022-11-03T17:12:33.881Z,94808.34
2022-11-03T17:15:02.686Z,94830.53
2022-11-03T17:17:29.758Z,94819.03
2022-11-03T17:19:56.878Z,94813.25
2022-11-03T17:22:23.958Z,94809.34
2022-11-03T17:24:51.138Z,94812.06
2022-11-03T17:27:25.518Z,94812.63
2022-11-03T17:29:58.158Z,94808.44
2022-11-03T17:32:31.614Z,94810.50
2022-11-03T17:34:59.442Z,94804.53
2022-11-03T17:37:28.023Z,94797.59
2022-11-03T17:39:56.336Z,94821.06
2022-11-03T17:42:25.225Z,94835.03
2022-11-03T17:44:54.378Z,94781.28
2022-11-03T17:47:23.066Z,94802.38
2022-11-03T17:49:52.057Z,94807.97
2022-11-03T17:52:25.094Z,94783.72
2022-11-03T17:54:58.738Z,94766.72
2022-11-03T17:57:27.058Z,94774.38
2022-11-03T17:59:57.599Z,94775.94
2022-11-03T18:02:27.491Z,94769.09
2022-11-03T18:05:15.411Z,94756.94
2022-11-03T18:07:45.661Z,94756.81
2022-11-03T18:10:13.031Z,94765.34
2022-11-03T18:12:44.724Z,94757.47
2022-11-03T18:15:17.868Z,94745.00
2022-11-03T18:17:45.618Z,94747.69
2022-11-03T18:20:19.879Z,94759.34
2022-11-03T18:22:47.237Z,94764.13
2022-11-03T18:25:15.517Z,94779.44
2022-11-03T18:27:43.717Z,94791.88
2022-11-03T18:30:12.897Z,94775.81
2022-11-03T18:32:41.283Z,94781.91
2022-11-03T18:35:18.658Z,94781.91
2022-11-03T18:37:45.899Z,94766.88
2022-11-03T18:40:14.841Z,94764.16
2022-11-03T18:42:42.015Z,94761.97
2022-11-03T18:45:12.076Z,94755.31
2022-11-03T18:47:39.184Z,94750.25
2022-11-03T18:50:07.772Z,94741.53
2022-11-03T18:52:41.377Z,94757.91
2022-11-03T18:55:11.356Z,94749.28
2022-11-03T18:57:39.877Z,94742.78
2022-11-03T19:00:16.466Z,94748.91
2022-11-03T19:02:43.525Z,94748.84
2022-11-03T19:05:13.787Z,94743.72
2022-11-03T19:07:45.895Z,94745.13
2022-11-03T19:10:15.816Z,94743.44
2022-11-03T19:12:45.577Z,94720.03
2022-11-03T19:15:19.276Z,94745.13
2022-11-03T19:17:49.535Z,94806.69
2022-11-03T19:20:17.717Z,94857.56
2022-11-03T19:22:46.995Z,94842.69
2022-11-03T19:25:14.136Z,94836.63
2022-11-03T19:27:45.917Z,94826.06
2022-11-03T19:30:16.875Z,94833.06
2022-11-03T19:32:47.717Z,94844.03
2022-11-03T19:35:21.691Z,94843.16
2022-11-03T19:37:58.635Z,94856.94
2022-11-03T19:40:25.737Z,94865.53
2022-11-03T19:42:52.776Z,94865.22
2022-11-03T19:45:20.864Z,94855.19
2022-11-03T19:48:23.709Z,94868.00
2022-11-03T19:50:42.937Z,94871.13
2022-11-03T19:53:20.355Z,94878.22
2022-11-03T19:55:48.992Z,94875.91
2022-11-03T19:58:18.495Z,94883.72
2022-11-03T20:00:46.787Z,94885.25
2022-11-03T20:03:14.517Z,94878.28
2022-11-03T20:05:49.037Z,94888.56
2022-11-03T20:08:21.834Z,94898.09
2022-11-03T20:10:49.816Z,94906.41
2022-11-03T20:13:20.702Z,94907.38
2022-11-03T20:15:48.195Z,94920.69
2022-11-03T20:18:16.356Z,94930.50
2022-11-03T20:20:45.958Z,94940.81
2022-11-03T20:23:21.075Z,94930.69
2022-11-03T20:25:48.995Z,94946.19
2022-11-03T20:28:19.377Z,94940.72
2022-11-03T20:30:46.514Z,94933.63
2022-11-03T20:33:15.811Z,94942.78
2022-11-03T20:35:44.469Z,94939.00
2022-11-03T20:38:14.369Z,94929.06
2022-11-03T20:40:42.915Z,94943.59
2022-11-03T20:43:23.379Z,94945.97
2022-11-03T20:45:50.473Z,94964.38
2022-11-03T20:48:17.516Z,94974.13
2022-11-03T20:50:44.876Z,94989.44
2022-11-03T20:53:15.695Z,94992.41
2022-11-03T20:55:44.876Z,95011.50
2022-11-03T20:58:13.657Z,95013.22
2022-11-03T21:00:42.451Z,95021.81
2022-11-03T21:03:38.014Z,95044.38
2022-11-03T21:06:06.376Z,95047.06
2022-11-03T21:08:33.435Z,95028.16
2022-11-03T21:11:01.895Z,95042.22
2022-11-03T21:13:28.956Z,95049.44
2022-11-03T21:16:22.619Z,95042.56
2022-11-03T21:18:43.116Z,95045.88
2022-11-03T21:21:11.498Z,95052.63
2022-11-03T21:23:39.618Z,95069.75
2022-11-03T21:26:10.495Z,95066.13
2022-11-03T21:28:37.515Z,95075.16
2022-11-03T21:31:04.795Z,95077.97
2022-11-03T21:33:31.836Z,95061.38
2022-11-03T21:36:00.696Z,95072.28
2022-11-03T21:38:27.815Z,95076.78
2022-11-03T21:40:56.455Z,95078.09
2022-11-03T21:43:25.097Z,95092.97
2022-11-03T21:45:52.295Z,95103.72
2022-11-03T21:48:19.538Z,95109.56
2022-11-03T21:50:47.067Z,95116.66
2022-11-03T21:53:14.263Z,95109.31
2022-11-03T21:55:41.976Z,95112.88
2022-11-03T21:58:09.540Z,95096.75
2022-11-03T22:00:37.996Z,95085.06
2022-11-03T22:03:05.212Z,95088.41
2022-11-03T22:05:32.396Z,95080.59
2022-11-03T22:07:59.479Z,95096.28
2022-11-03T22:10:26.535Z,95083.13
2022-11-03T22:12:54.067Z,95067.34
2022-11-03T22:15:21.097Z,95078.66
2022-11-03T22:17:49.637Z,95081.19
2022-11-03T22:20:16.938Z,95091.38
2022-11-03T22:22:43.978Z,95106.56
2022-11-03T22:25:11.028Z,95090.78
2022-11-03T22:27:38.135Z,95084.38
2022-11-03T22:30:06.816Z,95076.34
2022-11-03T22:32:33.858Z,95066.97
2022-11-03T22:35:02.672Z,95089.50
2022-11-03T22:39:56.335Z,95112.19
2022-11-03T22:42:23.364Z,95110.59
2022-11-03T22:44:50.398Z,95117.69
2022-11-03T22:47:18.710Z,95097.47
2022-11-03T22:49:46.137Z,95084.56
2022-11-03T22:52:14.600Z,95050.03
2022-11-03T22:54:41.700Z,95049.34
2022-11-03T22:57:09.898Z,95044.88
2022-11-03T22:59:36.956Z,95041.34
2022-11-03T23:02:04.120Z,95048.22
2022-11-03T23:04:31.497Z,95061.81
2022-11-03T23:06:58.555Z,95054.34
2022-11-03T23:09:27.076Z,95076.31
2022-11-03T23:11:54.077Z,95078.00
2022-11-03T23:14:21.157Z,95073.34
2022-11-03T23:16:48.218Z,95060.72
2022-11-03T23:19:16.145Z,95054.06
2022-11-03T23:21:45.340Z,95051.38
2022-11-03T23:24:12.698Z,95070.66
2022-11-03T23:26:41.599Z,95067.97
2022-11-03T23:29:09.498Z,95065.81
2022-11-03T23:31:37.281Z,95075.88
2022-11-03T23:34:06.160Z,95089.19
2022-11-03T23:36:33.498Z,95086.56
2022-11-03T23:39:01.719Z,95091.31
2022-11-03T23:41:29.897Z,95094.50
2022-11-03T23:43:58.576Z,95096.72
2022-11-03T23:46:28.397Z,95095.69
2022-11-03T23:48:55.657Z,95103.16
2022-11-03T23:51:25.336Z,95107.59
2022-11-03T23:53:53.579Z,95109.84
2022-11-03T23:56:23.181Z,95110.63
2022-11-03T23:58:51.197Z,95101.16
